Terminal Aerodrome Forecast
Issued by NWS

Home | Current Version | Previous Version | Text Only | Print | Product List | Glossary On
Versions: 1 2 3 4 5 6 7 8 9 10 11 12 13 14 15 16 17 18 19 20
666
FTUS41 KBGM 291129
TAFITH
TAF
KITH 291129Z 2912/3012 VRB03KT P6SM OVC040
     FM291700 VRB04KT P6SM BKN025 OVC040
     FM292100 VRB03KT 4SM -SHRA BR BKN015 OVC030
     FM300400 VRB03KT 4SM BR OVC015=

USA.gov is the U.S. government's official web portal to all federal, state and local government web resources and services.